Time;durP1;ratioP1;P1;durP2;ratioP2;P2;SDS_P1;SDS_P2;PMS_P1;PMS_P2;Temp;Humidity;BMP_temperature;BMP_pressure;BME280_temperature;BME280_humidity;BME280_pressure;Samples;Min_cycle;Max_cycle;Signal;HPM_P1;HPM_P2
2023/07/15 00:00:47;;;;;;;2.75;1.15;;;22.60;97.70;;;;;;5056202;28;20265;-61
2023/07/15 00:03:15;;;;;;;3.97;1.60;;;22.70;97.40;;;;;;5056272;28;20653;-61
2023/07/15 00:05:41;;;;;;;4.60;1.50;;;22.60;97.70;;;;;;5055905;28;20179;-61
2023/07/15 00:08:07;;;;;;;1.55;1.08;;;22.50;97.60;;;;;;5056072;28;20179;-61
2023/07/15 00:10:34;;;;;;;4.13;1.20;;;22.60;97.50;;;;;;5056093;28;20317;-61
2023/07/15 00:13:00;;;;;;;3.08;1.30;;;22.60;97.60;;;;;;5056053;28;20576;-61
2023/07/15 00:15:26;;;;;;;2.10;1.33;;;22.60;97.30;;;;;;5055713;28;20214;-61
2023/07/15 00:17:52;;;;;;;3.05;1.30;;;22.50;97.60;;;;;;5057845;28;20227;-61
2023/07/15 00:20:19;;;;;;;1.55;1.13;;;22.50;98.10;;;;;;5055830;28;20187;-61
2023/07/15 00:22:45;;;;;;;2.17;1.60;;;22.50;97.80;;;;;;5055873;28;20171;-61
2023/07/15 00:25:20;;;;;;;3.78;1.40;;;22.40;98.00;;;;;;5056135;28;20182;-61
2023/07/15 00:27:47;;;;;;;3.50;1.58;;;22.50;98.20;;;;;;5055773;28;20163;-61
2023/07/15 00:30:15;;;;;;;3.03;1.52;;;22.40;98.20;;;;;;5055775;28;20175;-61
2023/07/15 00:32:42;;;;;;;2.70;1.38;;;22.40;97.80;;;;;;5055406;28;20624;-61
2023/07/15 00:35:20;;;;;;;3.40;1.30;;;22.50;98.20;;;;;;5055654;28;20179;-61
2023/07/15 00:37:47;;;;;;;3.28;1.42;;;22.40;98.60;;;;;;5037664;28;20175;-61
2023/07/15 00:40:14;;;;;;;1.92;1.38;;;22.40;98.80;;;;;;5055144;28;20524;-61
2023/07/15 00:43:07;;;;;;;2.13;1.33;;;22.40;98.80;;;;;;5055479;28;20179;-61
2023/07/15 00:45:32;;;;;;;1.95;1.45;;;22.50;98.40;;;;;;5055245;28;20164;-61
2023/07/15 00:48:29;;;;;;;2.60;1.40;;;22.40;98.80;;;;;;5036627;28;20317;-61
2023/07/15 00:50:54;;;;;;;3.85;1.63;;;22.40;99.10;;;;;;5035017;28;20191;-61
2023/07/15 00:53:20;;;;;;;2.45;1.60;;;22.40;99.10;;;;;;5055312;28;20179;-61
2023/07/15 00:55:46;;;;;;;2.53;1.48;;;22.40;99.30;;;;;;5055588;28;20528;-61
2023/07/15 00:58:11;;;;;;;2.67;1.52;;;22.40;99.40;;;;;;5055529;28;20210;-61
2023/07/15 01:00:37;;;;;;;2.63;1.67;;;22.40;99.30;;;;;;5055028;28;20238;-61
2023/07/15 01:03:03;;;;;;;2.35;1.50;;;22.30;99.40;;;;;;5055071;28;20179;-61
2023/07/15 01:05:29;;;;;;;2.10;1.45;;;22.30;99.50;;;;;;5055332;28;20182;-61
2023/07/15 01:07:55;;;;;;;3.78;1.73;;;22.30;99.80;;;;;;5055040;28;20568;-61
2023/07/15 01:10:20;;;;;;;3.28;1.50;;;22.20;99.90;;;;;;5054701;28;20175;-61
2023/07/15 01:12:46;;;;;;;2.47;1.70;;;22.30;99.90;;;;;;5054949;28;20354;-61
2023/07/15 01:15:12;;;;;;;4.10;1.63;;;22.20;99.90;;;;;;5055143;28;20182;-61
2023/07/15 01:17:37;;;;;;;1.85;1.48;;;22.10;99.90;;;;;;5054621;28;20219;-61
2023/07/15 01:20:05;;;;;;;2.67;1.63;;;22.10;99.90;;;;;;5054526;28;20170;-61
2023/07/15 01:22:35;;;;;;;2.45;1.58;;;21.90;99.90;;;;;;5054852;28;20194;-61
2023/07/15 01:25:00;;;;;;;4.40;1.63;;;22.00;99.90;;;;;;5054701;28;20175;-61
2023/07/15 01:27:26;;;;;;;4.45;1.88;;;21.90;99.90;;;;;;5036982;28;20179;-61
2023/07/15 01:29:52;;;;;;;2.80;1.45;;;21.90;99.90;;;;;;5054633;28;20625;-61
2023/07/15 01:32:17;;;;;;;2.50;1.58;;;21.60;99.90;;;;;;5054538;28;20183;-61
2023/07/15 01:34:43;;;;;;;1.92;1.38;;;21.60;99.90;;;;;;5054531;28;20186;-61
2023/07/15 01:37:08;;;;;;;4.45;1.83;;;21.60;99.90;;;;;;5054473;28;20187;-61
2023/07/15 01:39:34;;;;;;;1.88;1.60;;;21.50;99.90;;;;;;5054478;28;20624;-61
2023/07/15 01:42:00;;;;;;;1.77;1.50;;;21.40;99.90;;;;;;5054299;28;20238;-61
2023/07/15 01:44:26;;;;;;;2.83;1.45;;;21.40;99.90;;;;;;5054310;28;20237;-61
2023/07/15 01:46:51;;;;;;;2.55;1.60;;;21.30;99.90;;;;;;5054199;28;20179;-61
2023/07/15 01:49:17;;;;;;;2.10;1.30;;;21.20;99.90;;;;;;5054219;28;20536;-61
2023/07/15 01:51:43;;;;;;;2.30;1.60;;;21.20;99.90;;;;;;5054264;28;20536;-62
2023/07/15 01:54:08;;;;;;;2.65;1.52;;;21.30;99.90;;;;;;5053862;28;20175;-61
2023/07/15 01:56:34;;;;;;;3.38;1.52;;;21.20;99.90;;;;;;5054094;28;20180;-62
2023/07/15 01:58:59;;;;;;;2.55;1.55;;;21.10;99.90;;;;;;5053693;28;20194;-61
2023/07/15 02:01:26;;;;;;;2.20;1.50;;;21.10;99.90;;;;;;5054144;28;20226;-61
2023/07/15 02:03:51;;;;;;;4.28;1.40;;;21.10;99.90;;;;;;5053985;28;20201;-61
2023/07/15 02:06:17;;;;;;;1.80;1.48;;;21.10;99.90;;;;;;5053889;28;20176;-61
2023/07/15 02:08:43;;;;;;;2.03;1.30;;;21.10;99.90;;;;;;5053930;28;20179;-61
2023/07/15 02:11:09;;;;;;;2.50;1.70;;;21.10;99.90;;;;;;5053639;28;20228;-61
2023/07/15 02:13:34;;;;;;;3.08;1.70;;;21.10;99.90;;;;;;5053466;28;20186;-61
2023/07/15 02:16:00;;;;;;;2.78;1.50;;;21.10;99.90;;;;;;5053802;28;20175;-61
2023/07/15 02:18:25;;;;;;;1.95;1.60;;;21.10;99.90;;;;;;5053485;28;20226;-61
2023/07/15 02:20:52;;;;;;;3.15;1.75;;;21.20;99.90;;;;;;5053568;28;20553;-61
2023/07/15 02:23:17;;;;;;;3.15;1.80;;;21.20;99.90;;;;;;5053895;28;20266;-61
2023/07/15 02:25:43;;;;;;;2.38;1.70;;;21.10;99.90;;;;;;5053361;28;20253;-61
2023/07/15 02:28:09;;;;;;;5.22;1.77;;;21.10;99.90;;;;;;5053608;28;20624;-61
2023/07/15 02:30:34;;;;;;;2.10;1.60;;;21.10;99.90;;;;;;5053606;28;20237;-61
2023/07/15 02:33:01;;;;;;;1.92;1.52;;;21.10;99.90;;;;;;5053499;28;20211;-61
2023/07/15 02:35:27;;;;;;;3.28;1.55;;;20.90;99.90;;;;;;5053533;28;20178;-62
2023/07/15 02:37:54;;;;;;;2.67;1.73;;;20.80;99.90;;;;;;5053398;28;20183;-61
2023/07/15 02:40:20;;;;;;;2.10;1.50;;;20.90;99.90;;;;;;5053331;28;20183;-62
2023/07/15 02:42:46;;;;;;;2.17;1.73;;;20.80;99.90;;;;;;5053460;28;20270;-62
2023/07/15 02:45:14;;;;;;;2.75;1.67;;;20.90;99.90;;;;;;5053116;28;20172;-62
2023/07/15 02:47:39;;;;;;;3.08;1.52;;;20.90;99.90;;;;;;5053371;28;20179;-62
2023/07/15 02:50:09;;;;;;;3.45;1.63;;;20.90;99.90;;;;;;5053046;28;20232;-61
2023/07/15 02:52:37;;;;;;;2.05;1.48;;;20.90;99.90;;;;;;5053274;28;20261;-62
2023/07/15 02:55:04;;;;;;;3.13;1.70;;;20.90;99.90;;;;;;5053328;28;20204;-62
2023/07/15 02:57:31;;;;;;;4.25;1.55;;;21.00;99.90;;;;;;5035720;28;20181;-62
2023/07/15 02:59:57;;;;;;;2.33;1.50;;;21.00;99.90;;;;;;5053260;28;20179;-62
2023/07/15 03:02:23;;;;;;;2.15;1.73;;;21.00;99.90;;;;;;5053204;28;20549;-62
2023/07/15 03:04:49;;;;;;;4.10;1.88;;;21.10;99.90;;;;;;5052917;28;20634;-62
2023/07/15 03:07:16;;;;;;;2.90;1.50;;;21.10;99.90;;;;;;5052909;28;20174;-62
2023/07/15 03:09:42;;;;;;;3.33;1.70;;;21.10;99.90;;;;;;5053613;28;20175;-62
2023/07/15 03:12:10;;;;;;;2.42;1.60;;;21.10;99.90;;;;;;5057241;28;20228;-62
2023/07/15 03:14:36;;;;;;;3.17;1.58;;;21.10;99.90;;;;;;5057176;28;20171;-62
2023/07/15 03:17:03;;;;;;;2.85;2.03;;;21.10;99.90;;;;;;5057127;28;20194;-62
2023/07/15 03:19:31;;;;;;;2.67;1.60;;;21.10;99.90;;;;;;5056619;28;20296;-62
2023/07/15 03:21:57;;;;;;;3.45;1.88;;;21.10;99.90;;;;;;5057125;28;20202;-62
2023/07/15 03:24:25;;;;;;;1.85;1.50;;;21.10;99.90;;;;;;5056980;28;20183;-62
2023/07/15 03:26:53;;;;;;;3.03;1.65;;;21.20;99.90;;;;;;5056576;28;20532;-62
2023/07/15 03:29:20;;;;;;;2.53;1.60;;;21.00;99.90;;;;;;5057123;28;20175;-62
2023/07/15 03:31:46;;;;;;;1.90;1.70;;;21.10;99.90;;;;;;5038023;28;20191;-62
2023/07/15 03:34:12;;;;;;;2.60;1.55;;;21.10;99.90;;;;;;5036835;28;20180;-62
2023/07/15 03:36:38;;;;;;;2.88;1.50;;;21.00;99.90;;;;;;5036774;28;20270;-62
2023/07/15 03:39:03;;;;;;;2.70;1.50;;;21.00;99.90;;;;;;5036713;28;20266;-62
2023/07/15 03:41:29;;;;;;;3.55;1.95;;;21.00;99.90;;;;;;5036638;28;20257;-62
2023/07/15 03:43:55;;;;;;;3.08;1.80;;;21.00;99.90;;;;;;5036761;28;20172;-62
2023/07/15 03:46:22;;;;;;;3.17;1.80;;;21.00;99.90;;;;;;5036692;28;20588;-62
2023/07/15 03:48:47;;;;;;;2.65;1.55;;;21.00;99.90;;;;;;5036614;28;20186;-62
2023/07/15 03:51:13;;;;;;;5.97;1.75;;;20.90;99.90;;;;;;5036298;28;20266;-62
2023/07/15 03:53:39;;;;;;;2.83;1.90;;;20.80;99.90;;;;;;5036533;28;20168;-62
2023/07/15 03:56:04;;;;;;;4.63;2.05;;;20.90;99.90;;;;;;5036620;28;20525;-62
2023/07/15 03:58:30;;;;;;;3.38;1.75;;;20.90;99.90;;;;;;5036041;28;20182;-62
2023/07/15 04:00:56;;;;;;;1.98;1.65;;;20.90;99.90;;;;;;5036350;28;20276;-62
2023/07/15 04:03:21;;;;;;;3.13;1.77;;;20.80;99.90;;;;;;5036130;28;20187;-62
2023/07/15 04:05:47;;;;;;;3.60;2.00;;;20.90;99.90;;;;;;5036034;28;20188;-62
2023/07/15 04:08:13;;;;;;;4.53;2.00;;;20.90;99.90;;;;;;5036233;28;20183;-62
2023/07/15 04:10:38;;;;;;;3.88;1.98;;;20.80;99.90;;;;;;5036253;28;20207;-62
2023/07/15 04:13:04;;;;;;;4.15;1.83;;;20.70;99.90;;;;;;5036191;28;20199;-62
2023/07/15 04:15:30;;;;;;;2.78;1.88;;;20.60;99.90;;;;;;5036107;28;20172;-62
2023/07/15 04:17:56;;;;;;;3.33;1.90;;;20.60;99.90;;;;;;5035911;28;20318;-62
2023/07/15 04:20:22;;;;;;;2.88;1.55;;;20.60;99.90;;;;;;5035926;28;20253;-61
2023/07/15 04:22:48;;;;;;;1.90;1.70;;;20.50;99.90;;;;;;5034581;28;20618;-62
2023/07/15 04:25:14;;;;;;;4.05;2.05;;;20.40;99.90;;;;;;5035988;28;20180;-62
2023/07/15 04:27:41;;;;;;;3.60;2.00;;;20.30;99.90;;;;;;5035990;28;20227;-62
2023/07/15 04:30:10;;;;;;;3.13;1.92;;;20.40;99.90;;;;;;5035856;28;20180;-62
2023/07/15 04:32:36;;;;;;;3.28;1.80;;;20.30;99.90;;;;;;5035818;28;20218;-62
2023/07/15 04:35:02;;;;;;;3.75;2.05;;;20.30;99.90;;;;;;5035808;28;20262;-62
2023/07/15 04:37:28;;;;;;;2.88;2.08;;;20.40;99.90;;;;;;5035625;28;20195;-61
2023/07/15 04:39:54;;;;;;;2.83;1.70;;;20.40;99.90;;;;;;5035731;28;20179;-61
2023/07/15 04:42:19;;;;;;;5.35;1.75;;;20.60;99.90;;;;;;5035550;28;20246;-61
2023/07/15 04:44:45;;;;;;;2.92;1.73;;;20.60;99.90;;;;;;5035292;28;20182;-61
2023/07/15 04:47:12;;;;;;;5.55;1.90;;;20.60;99.90;;;;;;5035731;28;20259;-61
2023/07/15 04:49:38;;;;;;;2.97;1.83;;;20.60;99.90;;;;;;5035352;28;20183;-61
2023/07/15 04:52:04;;;;;;;4.13;1.83;;;20.80;99.90;;;;;;5035476;28;20176;-61
2023/07/15 04:54:30;;;;;;;2.05;1.60;;;20.90;99.90;;;;;;5035388;28;20644;-61
2023/07/15 04:56:55;;;;;;;3.63;1.88;;;20.90;99.90;;;;;;5035092;28;20180;-59
2023/07/15 04:59:21;;;;;;;3.03;1.85;;;20.90;99.90;;;;;;5035244;28;20174;-59
2023/07/15 05:01:48;;;;;;;2.65;1.70;;;20.80;99.90;;;;;;5035139;28;20211;-59
2023/07/15 05:04:14;;;;;;;4.07;2.03;;;20.80;99.90;;;;;;5035203;28;20622;-59
2023/07/15 05:06:39;;;;;;;3.00;1.67;;;20.90;99.90;;;;;;5034900;28;20180;-59
2023/07/15 05:09:05;;;;;;;3.60;2.03;;;21.00;99.90;;;;;;5035088;28;20249;-60
2023/07/15 05:11:31;;;;;;;3.35;1.83;;;20.90;99.90;;;;;;5035364;28;20206;-60
2023/07/15 05:13:56;;;;;;;3.55;1.80;;;20.90;99.90;;;;;;5034780;28;20168;-59
2023/07/15 05:16:22;;;;;;;3.42;2.10;;;21.00;99.90;;;;;;5034971;28;20176;-59
2023/07/15 05:18:48;;;;;;;4.00;2.30;;;21.00;99.90;;;;;;5034920;28;20274;-59
2023/07/15 05:21:14;;;;;;;1.70;1.60;;;21.00;99.90;;;;;;5034842;28;20223;-59
2023/07/15 05:23:39;;;;;;;5.90;1.70;;;20.90;99.90;;;;;;5017145;28;20179;-59
2023/07/15 05:26:05;;;;;;;2.95;1.60;;;20.90;99.90;;;;;;5034819;28;20682;-59
2023/07/15 05:28:32;;;;;;;2.58;1.50;;;20.90;99.90;;;;;;5034907;28;20176;-59
2023/07/15 05:30:58;;;;;;;4.78;1.90;;;21.00;99.90;;;;;;5034346;28;20625;-59
2023/07/15 05:33:24;;;;;;;3.92;1.38;;;21.10;99.90;;;;;;5034306;28;20183;-59
2023/07/15 05:35:50;;;;;;;2.47;1.42;;;21.10;99.90;;;;;;5037082;28;20285;-59
2023/07/15 05:38:16;;;;;;;2.58;1.20;;;21.20;99.90;;;;;;5044954;28;20520;-58
2023/07/15 05:40:42;;;;;;;5.40;1.27;;;21.20;99.90;;;;;;5043706;28;20246;-59
2023/07/15 05:43:10;;;;;;;1.65;1.20;;;21.20;99.90;;;;;;5043325;28;20175;-59
2023/07/15 05:45:36;;;;;;;2.20;1.20;;;21.10;99.90;;;;;;5042848;28;20176;-59
2023/07/15 05:48:02;;;;;;;1.25;1.00;;;21.10;99.90;;;;;;5044113;28;20182;-59
2023/07/15 05:50:32;;;;;;;1.83;1.13;;;21.10;99.90;;;;;;5044326;28;20184;-59
2023/07/15 05:52:58;;;;;;;2.70;1.02;;;21.20;99.90;;;;;;5042886;28;20176;-59
2023/07/15 05:55:23;;;;;;;2.35;1.13;;;21.30;99.90;;;;;;5043770;28;20182;-59
2023/07/15 05:57:49;;;;;;;1.58;1.10;;;21.40;99.90;;;;;;5044418;28;20529;-59
2023/07/15 06:00:15;;;;;;;1.58;0.90;;;21.50;99.90;;;;;;5043182;28;20541;-59
2023/07/15 06:02:41;;;;;;;1.17;1.08;;;21.50;99.90;;;;;;5053132;28;20179;-59
2023/07/15 06:05:07;;;;;;;1.83;0.93;;;21.60;99.90;;;;;;5053762;28;20180;-59
2023/07/15 06:07:33;;;;;;;1.55;1.20;;;21.80;99.90;;;;;;5053689;28;20262;-60
2023/07/15 06:09:58;;;;;;;1.15;1.00;;;21.90;99.90;;;;;;5053357;28;20260;-59
2023/07/15 06:12:24;;;;;;;3.28;1.20;;;21.70;99.90;;;;;;5053654;28;20190;-59
2023/07/15 06:14:50;;;;;;;2.42;1.17;;;21.80;99.90;;;;;;5053247;28;20183;-59
2023/07/15 06:17:16;;;;;;;2.17;1.10;;;21.80;99.90;;;;;;5053556;28;20168;-59
2023/07/15 06:19:42;;;;;;;2.42;1.30;;;21.90;99.90;;;;;;5045112;28;20219;-59
2023/07/15 06:22:09;;;;;;;3.92;1.30;;;22.00;99.90;;;;;;5043697;28;20688;-59
2023/07/15 06:24:34;;;;;;;1.80;1.30;;;22.00;99.90;;;;;;5042160;28;20168;-59
2023/07/15 06:27:00;;;;;;;2.67;1.45;;;22.10;99.90;;;;;;5043008;28;20184;-59
2023/07/15 06:29:27;;;;;;;1.98;1.27;;;22.30;99.90;;;;;;5049704;28;20185;-59
2023/07/15 06:31:52;;;;;;;3.13;1.00;;;22.20;99.90;;;;;;5051929;28;20171;-60
2023/07/15 06:34:18;;;;;;;2.22;1.20;;;22.20;99.90;;;;;;5051954;28;20172;-60
2023/07/15 06:36:45;;;;;;;1.30;1.20;;;22.20;99.90;;;;;;5053150;28;20195;-59
2023/07/15 06:39:11;;;;;;;2.08;1.35;;;22.30;99.90;;;;;;5053239;28;20190;-59
2023/07/15 06:41:36;;;;;;;2.55;1.20;;;21.90;99.90;;;;;;5052896;28;20572;-59
2023/07/15 06:44:02;;;;;;;3.03;1.40;;;21.90;99.90;;;;;;5053053;28;20255;-59
2023/07/15 06:46:28;;;;;;;1.15;1.00;;;21.90;99.90;;;;;;5053066;28;20218;-59
2023/07/15 06:48:55;;;;;;;1.65;1.10;;;21.80;99.90;;;;;;5051651;28;20179;-59
2023/07/15 06:51:22;;;;;;;1.73;1.10;;;21.80;99.90;;;;;;5033487;28;20211;-59
2023/07/15 06:53:47;;;;;;;2.00;1.30;;;21.70;99.90;;;;;;5033143;28;20187;-60
2023/07/15 06:56:13;;;;;;;3.50;1.40;;;21.80;99.90;;;;;;5033288;28;20172;-60
2023/07/15 06:58:39;;;;;;;1.83;0.82;;;21.70;99.90;;;;;;5033215;28;20286;-59
2023/07/15 07:01:04;;;;;;;3.28;1.13;;;21.80;99.90;;;;;;5032824;28;20298;-59
2023/07/15 07:03:32;;;;;;;2.33;1.05;;;21.90;99.90;;;;;;5033192;28;20262;-58
2023/07/15 07:05:57;;;;;;;1.20;1.00;;;22.00;99.90;;;;;;5050563;28;20214;-60
2023/07/15 07:08:23;;;;;;;1.98;0.98;;;22.20;99.90;;;;;;5053191;28;20199;-59
2023/07/15 07:10:52;;;;;;;2.70;1.15;;;22.40;99.90;;;;;;5053208;28;20305;-59
2023/07/15 07:13:18;;;;;;;2.28;1.13;;;22.40;99.90;;;;;;5053148;28;20183;-59
2023/07/15 07:15:44;;;;;;;2.25;1.20;;;22.40;99.90;;;;;;5053141;28;20186;-59
2023/07/15 07:18:11;;;;;;;2.35;1.10;;;22.40;99.90;;;;;;5052709;28;20219;-60
2023/07/15 07:20:40;;;;;;;2.55;1.30;;;22.50;99.90;;;;;;5053072;28;20187;-59
2023/07/15 07:23:05;;;;;;;3.42;1.08;;;22.50;99.90;;;;;;5053089;28;20163;-60
2023/07/15 07:25:31;;;;;;;2.35;1.10;;;22.80;99.90;;;;;;5052744;28;20536;-59
2023/07/15 07:27:56;;;;;;;2.65;1.40;;;23.00;99.90;;;;;;5052779;28;20179;-59
2023/07/15 07:30:23;;;;;;;2.30;1.20;;;23.00;99.90;;;;;;5051153;28;20180;-59
2023/07/15 07:32:48;;;;;;;2.42;1.30;;;22.90;99.90;;;;;;5032940;28;20207;-58
2023/07/15 07:35:14;;;;;;;1.23;1.10;;;23.10;99.90;;;;;;5032787;28;20272;-59
2023/07/15 07:37:40;;;;;;;2.53;1.27;;;23.50;99.90;;;;;;5032921;28;20172;-59
2023/07/15 07:40:09;;;;;;;2.50;1.17;;;23.50;99.90;;;;;;5033025;28;20179;-59
2023/07/15 07:42:40;;;;;;;1.55;1.17;;;23.70;99.90;;;;;;5032831;28;20746;-59
2023/07/15 07:45:15;;;;;;;2.53;1.30;;;23.50;99.90;;;;;;5032982;28;20164;-59
2023/07/15 07:47:41;;;;;;;1.70;1.40;;;23.30;99.90;;;;;;5032827;28;20171;-59
2023/07/15 07:50:07;;;;;;;2.55;1.42;;;23.10;99.90;;;;;;5032910;28;20272;-59
2023/07/15 07:52:33;;;;;;;2.60;1.48;;;23.00;99.90;;;;;;5032849;28;20637;-59
2023/07/15 07:54:58;;;;;;;2.05;1.42;;;22.70;99.90;;;;;;5032606;28;20175;-59
2023/07/15 07:57:24;;;;;;;1.88;1.20;;;22.50;99.90;;;;;;5035808;28;20183;-59
2023/07/15 07:59:49;;;;;;;2.78;1.42;;;22.60;99.90;;;;;;5036401;28;20180;-59
2023/07/15 08:02:15;;;;;;;3.28;1.50;;;22.50;99.90;;;;;;5036304;28;20669;-59
2023/07/15 08:04:41;;;;;;;2.70;1.40;;;22.40;99.90;;;;;;5036387;28;20275;-59
2023/07/15 08:07:06;;;;;;;3.40;1.40;;;22.60;99.90;;;;;;5035994;28;20179;-59
2023/07/15 08:09:32;;;;;;;3.25;1.75;;;22.30;99.90;;;;;;5036258;28;20179;-59
2023/07/15 08:11:59;;;;;;;3.47;1.70;;;22.30;99.90;;;;;;5036206;28;20184;-59
2023/07/15 08:14:24;;;;;;;1.90;1.50;;;22.40;99.90;;;;;;5036077;28;20241;-59
2023/07/15 08:16:50;;;;;;;1.58;1.38;;;22.40;99.90;;;;;;5036122;28;20621;-59
2023/07/15 08:19:16;;;;;;;3.55;1.45;;;22.40;99.90;;;;;;5036080;28;20234;-59
2023/07/15 08:21:42;;;;;;;2.15;1.40;;;22.40;99.90;;;;;;5035948;28;20294;-59
2023/07/15 08:24:07;;;;;;;3.17;1.50;;;22.40;99.90;;;;;;5035697;28;20198;-59
2023/07/15 08:26:33;;;;;;;4.55;1.60;;;22.30;99.90;;;;;;5035941;28;20183;-59
2023/07/15 08:29:00;;;;;;;3.92;1.60;;;22.20;99.90;;;;;;5035884;28;20184;-59
2023/07/15 08:31:26;;;;;;;2.90;1.58;;;22.20;99.90;;;;;;5018053;28;20533;-59
2023/07/15 08:33:52;;;;;;;2.42;1.42;;;22.20;99.90;;;;;;5035834;28;20176;-59
2023/07/15 08:36:17;;;;;;;2.60;1.70;;;22.30;99.90;;;;;;5035714;28;20176;-60
2023/07/15 08:38:43;;;;;;;2.28;1.50;;;22.30;99.90;;;;;;5035745;28;20310;-59
2023/07/15 08:41:10;;;;;;;2.78;1.60;;;22.40;99.90;;;;;;5035784;28;20224;-59
2023/07/15 08:43:35;;;;;;;3.30;1.75;;;22.50;99.90;;;;;;5035572;28;20182;-59
2023/07/15 08:46:11;;;;;;;4.30;1.70;;;22.50;99.90;;;;;;5035566;28;20593;-59
2023/07/15 08:48:37;;;;;;;3.20;1.65;;;22.60;99.90;;;;;;5035892;28;20172;-59
2023/07/15 08:51:05;;;;;;;5.03;2.08;;;22.60;99.90;;;;;;5035492;28;20176;-59
2023/07/15 08:53:31;;;;;;;3.60;1.52;;;22.60;99.90;;;;;;5035424;28;20195;-59
2023/07/15 08:55:57;;;;;;;3.53;1.90;;;22.60;99.90;;;;;;5035411;28;20177;-59
2023/07/15 08:58:24;;;;;;;2.08;1.60;;;22.50;99.90;;;;;;5035394;28;20184;-59
2023/07/15 09:00:53;;;;;;;2.67;1.52;;;22.30;99.90;;;;;;5035210;28;20235;-59
2023/07/15 09:03:22;;;;;;;4.88;2.00;;;22.40;99.90;;;;;;5034895;28;20176;-59
2023/07/15 09:05:48;;;;;;;3.33;1.50;;;22.40;99.90;;;;;;5035232;28;20222;-59
2023/07/15 09:08:15;;;;;;;3.15;1.60;;;22.70;99.90;;;;;;5034437;28;20183;-59
2023/07/15 09:10:55;;;;;;;2.22;1.60;;;22.70;99.90;;;;;;5035109;28;20167;-59
2023/07/15 09:13:28;;;;;;;2.17;1.35;;;22.80;99.90;;;;;;5035070;28;20218;-59
2023/07/15 09:15:56;;;;;;;3.40;1.90;;;22.80;99.90;;;;;;5017330;28;20168;-59
2023/07/15 09:18:22;;;;;;;2.95;1.50;;;22.80;99.90;;;;;;5034945;28;20258;-59
2023/07/15 09:20:49;;;;;;;2.85;1.92;;;22.90;99.90;;;;;;5034816;28;20192;-59
2023/07/15 09:23:16;;;;;;;3.50;1.83;;;22.80;99.90;;;;;;5034758;28;20180;-59
2023/07/15 09:25:54;;;;;;;3.03;1.80;;;22.80;99.90;;;;;;5034509;28;20173;-60
2023/07/15 09:28:21;;;;;;;3.30;1.77;;;22.80;99.90;;;;;;5034658;28;20171;-59
2023/07/15 09:30:46;;;;;;;4.43;1.98;;;22.70;99.90;;;;;;5035035;28;20533;-59
2023/07/15 09:33:33;;;;;;;2.72;2.00;;;23.00;99.90;;;;;;5034692;28;20172;-59
2023/07/15 09:36:00;;;;;;;5.15;1.85;;;23.10;99.90;;;;;;5034631;28;20175;-59
2023/07/15 09:38:31;;;;;;;3.00;2.08;;;23.50;99.90;;;;;;5034515;28;20176;-59
2023/07/15 09:41:00;;;;;;;2.42;1.52;;;24.10;99.90;;;;;;5034476;28;20204;-59
2023/07/15 09:43:52;;;;;;;4.30;1.92;;;24.30;99.90;;;;;;5034309;28;20172;-60
2023/07/15 09:46:19;;;;;;;5.68;1.90;;;24.90;99.90;;;;;;5034453;28;20303;-60
2023/07/15 09:48:47;;;;;;;3.47;1.83;;;25.00;99.90;;;;;;5034383;28;20179;-60
2023/07/15 09:51:14;;;;;;;2.90;1.83;;;25.20;99.90;;;;;;5034108;28;20172;-60
2023/07/15 09:53:43;;;;;;;5.18;1.88;;;25.30;99.90;;;;;;5034198;28;20275;-60
2023/07/15 09:56:10;;;;;;;3.85;1.42;;;25.50;99.90;;;;;;5034511;28;20311;-60
2023/07/15 09:58:39;;;;;;;2.53;1.42;;;25.40;99.90;;;;;;5034132;28;20180;-60
2023/07/15 10:01:19;;;;;;;2.83;1.75;;;25.10;99.90;;;;;;5033839;28;20200;-60
2023/07/15 10:03:54;;;;;;;2.55;1.63;;;25.20;99.90;;;;;;5034206;28;20251;-60
2023/07/15 10:06:21;;;;;;;3.60;1.70;;;25.50;99.90;;;;;;5034127;28;20164;-60
2023/07/15 10:08:47;;;;;;;2.17;1.60;;;25.30;99.90;;;;;;5033961;28;20677;-59
2023/07/15 10:11:14;;;;;;;3.80;1.80;;;25.00;99.90;;;;;;5033866;28;20255;-60
2023/07/15 10:13:40;;;;;;;2.78;1.80;;;24.70;99.90;;;;;;5033461;28;20179;-59
2023/07/15 10:16:06;;;;;;;2.20;1.70;;;24.40;99.90;;;;;;5033750;28;20180;-61
2023/07/15 10:18:32;;;;;;;3.25;1.70;;;24.40;99.90;;;;;;5033334;28;20252;-60
2023/07/15 10:21:05;;;;;;;2.78;1.65;;;24.20;99.90;;;;;;5033734;28;20247;-63
2023/07/15 10:23:32;;;;;;;2.08;1.52;;;24.00;99.90;;;;;;5033732;28;20274;-62
2023/07/15 10:26:05;;;;;;;4.60;1.70;;;23.80;99.90;;;;;;5033689;28;20180;-63
2023/07/15 10:28:36;;;;;;;3.17;1.77;;;23.70;99.90;;;;;;5033783;28;20187;-63
2023/07/15 10:31:15;;;;;;;1.83;1.63;;;23.60;99.90;;;;;;5033719;28;20763;-63
2023/07/15 10:33:58;;;;;;;3.90;1.88;;;23.40;99.90;;;;;;5033928;28;20174;-62
2023/07/15 10:36:40;;;;;;;4.18;1.70;;;23.50;99.90;;;;;;5033695;28;20160;-62
2023/07/15 10:39:31;;;;;;;3.63;1.80;;;23.40;99.90;;;;;;5033767;28;20167;-63
2023/07/15 10:42:11;;;;;;;2.38;1.77;;;23.20;99.90;;;;;;5033916;28;20566;-63
2023/07/15 10:44:52;;;;;;;3.58;1.60;;;23.10;99.90;;;;;;5015896;28;20299;-63
2023/07/15 10:47:18;;;;;;;3.20;1.83;;;23.50;99.90;;;;;;5033531;28;20160;-63
2023/07/15 10:49:44;;;;;;;3.60;1.70;;;23.70;99.90;;;;;;5033775;28;20175;-63
2023/07/15 10:52:11;;;;;;;2.58;1.80;;;23.80;99.90;;;;;;5033416;28;20195;-62
2023/07/15 10:54:39;;;;;;;2.72;1.42;;;23.70;99.90;;;;;;5033376;28;20187;-62
2023/07/15 10:57:14;;;;;;;3.67;1.85;;;23.80;99.90;;;;;;5033312;28;20230;-62
2023/07/15 10:59:41;;;;;;;5.10;2.08;;;23.80;99.90;;;;;;5033374;28;20168;-63
2023/07/15 11:02:08;;;;;;;2.33;1.60;;;23.90;99.90;;;;;;5033354;28;20207;-63
2023/07/15 11:04:38;;;;;;;3.53;1.75;;;24.20;99.90;;;;;;5033284;28;20172;-63
2023/07/15 11:07:06;;;;;;;3.20;1.80;;;24.60;99.90;;;;;;5033372;28;20218;-64
2023/07/15 11:09:32;;;;;;;4.30;1.80;;;25.20;99.90;;;;;;5033253;28;20600;-62
2023/07/15 11:11:58;;;;;;;1.83;1.45;;;25.60;99.90;;;;;;5033206;28;20184;-63
2023/07/15 11:14:26;;;;;;;2.92;1.65;;;25.50;99.90;;;;;;5033194;28;20175;-63
2023/07/15 11:16:57;;;;;;;4.35;1.40;;;25.40;99.90;;;;;;5033108;28;20641;-63
2023/07/15 11:19:23;;;;;;;2.97;1.85;;;25.70;99.90;;;;;;5033396;28;20222;-63
2023/07/15 11:21:51;;;;;;;6.40;2.15;;;25.70;99.90;;;;;;5033036;28;20204;-63
2023/07/15 11:24:18;;;;;;;4.00;1.70;;;25.30;99.90;;;;;;5033173;28;20182;-63
2023/07/15 11:26:44;;;;;;;3.35;1.60;;;25.30;99.90;;;;;;5033073;28;20176;-63
2023/07/15 11:29:29;;;;;;;2.05;1.20;;;25.40;99.90;;;;;;5033071;28;20311;-63
2023/07/15 11:31:56;;;;;;;4.28;1.90;;;25.60;99.90;;;;;;5035472;28;20533;-64
2023/07/15 11:34:26;;;;;;;3.50;1.65;;;25.30;99.90;;;;;;5036915;28;20248;-64
2023/07/15 11:36:58;;;;;;;4.20;1.70;;;25.70;99.90;;;;;;5036851;28;20172;-64
2023/07/15 11:39:24;;;;;;;3.08;1.50;;;26.10;99.90;;;;;;5036889;28;20178;-64
2023/07/15 11:41:50;;;;;;;3.95;1.48;;;26.50;99.90;;;;;;5036434;28;20808;-65
2023/07/15 11:44:20;;;;;;;2.65;1.70;;;26.70;99.90;;;;;;5036639;28;20168;-64
2023/07/15 11:46:46;;;;;;;2.88;1.25;;;26.80;99.90;;;;;;5036389;28;20672;-64
2023/07/15 11:49:18;;;;;;;3.30;1.95;;;26.80;99.90;;;;;;5036373;28;20177;-64
2023/07/15 11:51:44;;;;;;;3.30;1.60;;;26.80;99.90;;;;;;5036623;28;20165;-64
2023/07/15 11:54:12;;;;;;;3.75;1.45;;;26.50;99.90;;;;;;5036660;28;20168;-64
2023/07/15 11:56:56;;;;;;;2.22;1.40;;;26.20;99.90;;;;;;5036519;28;20176;-64
2023/07/15 11:59:27;;;;;;;2.75;1.33;;;26.10;99.90;;;;;;5036555;28;20164;-64
2023/07/15 12:01:53;;;;;;;3.03;1.50;;;26.50;99.90;;;;;;5036248;28;20242;-64
2023/07/15 12:04:21;;;;;;;1.98;1.40;;;26.70;99.90;;;;;;5036344;28;20215;-64
2023/07/15 12:06:54;;;;;;;3.97;1.52;;;27.00;99.90;;;;;;5036243;28;20287;-64
2023/07/15 12:09:21;;;;;;;3.13;1.60;;;27.20;99.90;;;;;;5036247;28;20179;-64
2023/07/15 12:11:48;;;;;;;4.38;1.40;;;27.40;99.90;;;;;;5036170;28;20283;-65
2023/07/15 12:14:15;;;;;;;3.22;1.60;;;27.50;99.90;;;;;;5035809;28;20689;-65
2023/07/15 12:16:42;;;;;;;3.00;1.50;;;27.50;99.90;;;;;;5035539;28;20518;-64
2023/07/15 12:19:13;;;;;;;2.88;1.40;;;26.80;99.90;;;;;;5041411;28;20235;-65
2023/07/15 12:21:39;;;;;;;2.28;1.20;;;26.60;99.90;;;;;;5055587;28;20201;-65
2023/07/15 12:24:05;;;;;;;2.92;1.42;;;26.70;99.90;;;;;;5053793;28;20172;-65
2023/07/15 12:26:31;;;;;;;2.17;1.50;;;26.60;99.90;;;;;;5055645;28;20171;-65
2023/07/15 12:28:57;;;;;;;2.47;1.30;;;26.40;99.90;;;;;;5055735;28;20262;-65
2023/07/15 12:31:23;;;;;;;5.03;1.45;;;26.00;99.90;;;;;;5035890;28;20193;-65
2023/07/15 12:33:49;;;;;;;1.95;1.30;;;25.70;99.90;;;;;;5036010;28;20168;-65
2023/07/15 12:36:16;;;;;;;2.00;1.30;;;25.70;99.90;;;;;;5035482;28;20207;-65
2023/07/15 12:38:42;;;;;;;1.90;1.45;;;25.70;99.90;;;;;;5035616;28;20171;-65
2023/07/15 12:41:08;;;;;;;3.00;1.60;;;25.70;99.90;;;;;;5041796;28;20687;-65
2023/07/15 12:43:35;;;;;;;2.78;1.50;;;25.90;99.90;;;;;;5037171;28;20198;-65
2023/07/15 12:46:02;;;;;;;2.72;1.40;;;26.10;99.90;;;;;;5035402;28;20183;-65
2023/07/15 12:48:28;;;;;;;3.03;1.40;;;26.20;99.90;;;;;;5035494;28;20180;-65